Skip Navigation LinksHome page > Weather > Current weather Skip Navigation Links

Current Weather

Oslo / Gardermoen, Norway

For information only: do not use for flight planning or navigation.
Latest weather
Observation time Wednesday, October 27, 2021 7:50 AM CEST
Local time Wednesday, October 27, 2021 8:18 AM CEST
Flight conditions Low Instrument Meteorological Conditions
Winds
Wind direction South (170°)
Wind speed 10 mph
Visibility 1.3 mi.
Present weather light rain, mist, RADZ
Sky condition
Ceiling 200 ft. indefinite
Cloud layer vertical visibility 200 ft.
Temperature 46°F
Dewpoint 46°F
Altimeter 29.44 in.Hg
Derived measurements
Relative humidity 100%
Wind chill 41°F
Density altitude -112 ft.
METAR ENGM 270550Z 17009KT 2100 R19R/P2000N R01R/1400D R19L/P2000N R01L/1300D -RA BR VV002 08/08 Q0997 TEMPO 1200 -RADZ BR

Settings

Location code

InnerDrive.Weather 4.0.6770.0 Release CLR 4.0.30319.42000
Copyright ©2018 Inner Drive Technology. All rights reserved. Portions Copyright ©1986-2018 David Braverman.

Find weather

Site navigation


Skip Navigation Links

Place info

Page info

PayPal - The safer, easier way to pay online!

Return home.

Copyright ©2021 Inner Drive Technology. Purveyors of fine, hand-crafted computer software. Page printed 2021-10-27T06:18:34 UTC.